createdAt,value
2018-12-11T00:00:13.342Z,11.00
2018-12-11T00:02:40.733Z,7.70
2018-12-11T00:05:08.063Z,8.50
2018-12-11T00:07:35.434Z,9.30
2018-12-11T00:10:02.942Z,10.17
2018-12-11T00:12:30.407Z,9.50
2018-12-11T00:14:57.835Z,8.77
2018-12-11T00:17:25.293Z,11.03
2018-12-11T00:19:52.720Z,12.40
2018-12-11T00:22:20.085Z,11.83
2018-12-11T00:24:47.568Z,10.17
2018-12-11T00:34:13.899Z,9.03
2018-12-11T00:36:41.241Z,9.90
2018-12-11T00:39:08.622Z,10.10
2018-12-11T00:41:35.972Z,11.73
2018-12-11T00:44:03.344Z,11.67
2018-12-11T00:46:30.840Z,11.73
2018-12-11T00:48:58.266Z,10.60
2018-12-11T00:51:25.702Z,10.30
2018-12-11T00:53:53.049Z,9.97
2018-12-11T00:56:20.391Z,8.97
2018-12-11T00:58:47.744Z,8.60
2018-12-11T01:01:15.134Z,9.87
2018-12-11T01:03:42.491Z,10.70
2018-12-11T01:06:09.947Z,10.93
2018-12-11T01:08:37.512Z,10.97
2018-12-11T01:11:04.940Z,8.30
2018-12-11T01:13:32.582Z,9.67
2018-12-11T01:17:24.511Z,9.30
2018-12-11T01:19:51.894Z,8.90
2018-12-11T01:22:19.270Z,8.57
2018-12-11T01:24:46.698Z,9.60
2018-12-11T01:27:14.053Z,10.27
2018-12-11T01:29:41.412Z,10.50
2018-12-11T01:32:08.734Z,9.57
2018-12-11T01:34:36.118Z,8.13
2018-12-11T01:37:03.473Z,8.80
2018-12-11T01:39:30.851Z,8.13
2018-12-11T01:41:58.194Z,8.60
2018-12-11T01:44:25.567Z,9.30
2018-12-11T01:46:53.126Z,8.00
2018-12-11T01:49:20.962Z,11.23
2018-12-11T01:51:48.325Z,10.20
2018-12-11T01:54:15.763Z,9.87
2018-12-11T01:56:43.135Z,7.63
2018-12-11T01:59:10.482Z,8.33
2018-12-11T02:01:37.853Z,8.20
2018-12-11T02:04:05.316Z,8.90
2018-12-11T02:06:32.654Z,8.40
2018-12-11T02:09:00.042Z,8.30
2018-12-11T02:11:27.469Z,10.83
2018-12-11T02:13:54.815Z,10.90
2018-12-11T02:16:22.599Z,10.73
2018-12-11T02:18:49.964Z,8.17
2018-12-11T02:21:17.389Z,8.03
2018-12-11T02:23:44.767Z,8.83
2018-12-11T02:26:12.107Z,8.60
2018-12-11T02:28:39.476Z,8.70
2018-12-11T02:31:06.812Z,8.13
2018-12-11T02:34:04.786Z,10.73
2018-12-11T02:36:32.141Z,11.50
2018-12-11T02:38:59.488Z,10.00
2018-12-11T02:42:51.192Z,11.85
2018-12-11T02:45:18.586Z,13.35
2018-12-11T02:47:46.047Z,12.88
2018-12-11T02:50:13.432Z,12.65
2018-12-11T02:52:40.845Z,13.93
2018-12-11T02:55:08.290Z,13.32
2018-12-11T02:57:36.215Z,15.05
2018-12-11T03:00:04.290Z,16.20
2018-12-11T03:02:31.708Z,16.40
2018-12-11T03:04:59.075Z,12.95
2018-12-11T03:07:26.831Z,11.45
2018-12-11T03:09:54.192Z,11.83
2018-12-11T03:12:21.544Z,9.63
2018-12-11T03:14:48.914Z,9.03
2018-12-11T03:17:16.336Z,8.68
2018-12-11T03:19:43.727Z,11.88
2018-12-11T03:22:11.156Z,11.08
2018-12-11T03:24:38.529Z,9.63
2018-12-11T03:27:05.899Z,8.53
2018-12-11T03:29:33.327Z,8.70
2018-12-11T03:32:00.695Z,9.48
2018-12-11T03:34:28.116Z,8.88
2018-12-11T03:36:55.506Z,8.60
2018-12-11T03:39:22.948Z,8.50
2018-12-11T03:41:50.343Z,10.07
2018-12-11T03:44:17.761Z,10.85
2018-12-11T03:46:45.119Z,10.55
2018-12-11T03:49:12.457Z,8.23
2018-12-11T03:51:39.829Z,7.67
2018-12-11T03:54:07.532Z,7.90
2018-12-11T03:56:34.933Z,8.65
2018-12-11T03:59:02.312Z,8.63
2018-12-11T04:01:29.798Z,8.47
2018-12-11T04:03:57.217Z,9.77
2018-12-11T04:06:24.708Z,10.10
2018-12-11T04:08:52.173Z,10.50
2018-12-11T04:11:19.574Z,7.43
2018-12-11T04:13:46.933Z,7.40
2018-12-11T04:16:14.384Z,8.57
2018-12-11T04:18:41.769Z,7.67
2018-12-11T04:21:09.153Z,8.70
2018-12-11T04:23:36.559Z,8.40
2018-12-11T04:26:03.959Z,9.13
2018-12-11T04:28:31.485Z,9.80
2018-12-11T04:30:58.831Z,12.60
2018-12-11T04:33:26.235Z,11.23
2018-12-11T04:35:53.632Z,9.50
2018-12-11T04:38:21.045Z,8.50
2018-12-11T04:40:48.458Z,8.20
2018-12-11T04:43:15.908Z,8.43
2018-12-11T04:45:43.275Z,8.75
2018-12-11T04:48:10.707Z,8.95
2018-12-11T04:50:38.063Z,11.33
2018-12-11T04:53:05.422Z,11.38
2018-12-11T04:55:32.800Z,11.30
2018-12-11T04:58:00.164Z,9.45
2018-12-11T05:00:27.605Z,8.83
2018-12-11T05:02:54.944Z,9.50
2018-12-11T05:05:22.317Z,8.78
2018-12-11T05:07:49.761Z,8.23
2018-12-11T05:10:17.119Z,7.92
2018-12-11T05:12:44.490Z,11.43
2018-12-11T05:15:11.961Z,10.10
2018-12-11T05:17:39.406Z,11.33
2018-12-11T05:20:06.985Z,8.25
2018-12-11T05:22:34.390Z,8.60
2018-12-11T05:25:01.751Z,8.63
2018-12-11T05:27:29.101Z,8.03
2018-12-11T05:29:56.452Z,9.10
2018-12-11T05:32:23.836Z,7.85
2018-12-11T05:34:51.179Z,10.05
2018-12-11T05:37:18.654Z,10.45
2018-12-11T05:39:46.120Z,10.38
2018-12-11T05:42:13.538Z,10.75
2018-12-11T05:44:40.897Z,9.88
2018-12-11T05:47:08.263Z,10.48
2018-12-11T05:49:35.602Z,10.82
2018-12-11T05:52:03.435Z,9.65
2018-12-11T05:54:30.826Z,17.15
2018-12-11T05:56:58.203Z,17.48
2018-12-11T05:59:25.681Z,16.15
2018-12-11T06:01:53.195Z,13.25
2018-12-11T06:04:20.568Z,10.88
2018-12-11T06:06:47.896Z,8.88
2018-12-11T06:09:15.363Z,9.58
2018-12-11T06:11:42.718Z,8.95
2018-12-11T06:14:10.088Z,9.38
2018-12-11T06:16:37.431Z,8.98
2018-12-11T06:19:04.814Z,9.40
2018-12-11T06:21:32.236Z,10.32
2018-12-11T06:23:59.636Z,12.30
2018-12-11T06:26:27.050Z,13.00
2018-12-11T06:28:54.419Z,10.30
2018-12-11T06:31:21.772Z,9.88
2018-12-11T06:33:49.104Z,9.73
2018-12-11T06:36:16.470Z,10.20
2018-12-11T06:38:43.839Z,10.40
2018-12-11T06:41:11.171Z,9.50
2018-12-11T06:43:38.561Z,12.40
2018-12-11T06:46:06.023Z,11.33
2018-12-11T06:48:33.453Z,12.30
2018-12-11T06:51:00.805Z,9.50
2018-12-11T06:53:28.194Z,8.90
2018-12-11T06:55:55.633Z,9.50
2018-12-11T06:58:22.963Z,9.03
2018-12-11T07:00:50.324Z,9.50
2018-12-11T07:03:17.682Z,9.10
2018-12-11T07:05:45.155Z,11.63
2018-12-11T07:08:16.963Z,13.03
2018-12-11T07:10:44.369Z,12.00
2018-12-11T07:13:11.717Z,10.80
2018-12-11T07:15:39.051Z,9.80
2018-12-11T07:18:06.441Z,11.73
2018-12-11T07:20:33.879Z,11.15
2018-12-11T07:23:01.324Z,12.30
2018-12-11T07:25:28.699Z,8.93
2018-12-11T07:27:56.032Z,12.30
2018-12-11T07:30:23.453Z,14.57
2018-12-11T07:32:50.892Z,14.18
2018-12-11T07:35:18.328Z,11.45
2018-12-11T07:37:45.699Z,12.47
2018-12-11T07:40:13.139Z,12.75
2018-12-11T07:42:40.575Z,12.73
2018-12-11T07:45:08.108Z,12.17
2018-12-11T07:47:35.430Z,14.30
2018-12-11T07:50:02.851Z,17.12
2018-12-11T07:52:30.192Z,19.33
2018-12-11T07:54:57.560Z,19.10
2018-12-11T07:57:24.914Z,12.78
2018-12-11T07:59:52.267Z,11.93
2018-12-11T08:02:19.639Z,9.90
2018-12-11T08:04:46.958Z,10.93
2018-12-11T08:07:14.339Z,12.87
2018-12-11T08:09:41.675Z,10.17
2018-12-11T08:12:09.041Z,12.17
2018-12-11T08:14:36.394Z,13.37
2018-12-11T08:17:03.966Z,13.70
2018-12-11T08:19:31.432Z,13.97
2018-12-11T08:21:58.904Z,10.97
2018-12-11T08:24:26.301Z,14.07
2018-12-11T08:26:53.677Z,11.40
2018-12-11T08:29:21.033Z,10.10
2018-12-11T08:31:48.384Z,13.00
2018-12-11T08:34:15.735Z,11.90
2018-12-11T08:36:43.074Z,16.37
2018-12-11T08:39:10.450Z,25.87
2018-12-11T08:41:37.800Z,16.67
2018-12-11T08:44:05.174Z,14.10
2018-12-11T08:46:32.576Z,13.50
2018-12-11T08:48:59.966Z,11.83
2018-12-11T08:51:27.349Z,11.53
2018-12-11T08:53:54.782Z,11.40
2018-12-11T08:56:22.500Z,13.37
2018-12-11T08:58:49.914Z,14.30
2018-12-11T09:01:17.284Z,14.20
2018-12-11T09:03:44.648Z,14.10
2018-12-11T09:06:12.060Z,11.53
2018-12-11T09:08:39.458Z,16.80
2018-12-11T09:11:07.006Z,14.17
2018-12-11T09:13:34.338Z,13.63
2018-12-11T09:16:01.714Z,16.07
2018-12-11T09:18:29.082Z,15.30
2018-12-11T09:20:56.594Z,16.53
2018-12-11T09:23:23.975Z,14.87
2018-12-11T09:25:51.332Z,15.20
2018-12-11T09:28:18.671Z,13.50
2018-12-11T09:30:46.055Z,16.57
2018-12-11T09:33:13.464Z,16.40
2018-12-11T09:35:40.869Z,15.43
2018-12-11T09:38:08.317Z,19.33
2018-12-11T09:40:35.786Z,29.23
2018-12-11T09:43:03.239Z,20.07
2018-12-11T09:45:30.709Z,21.33
2018-12-11T09:47:58.135Z,17.33
2018-12-11T09:50:25.505Z,16.67
2018-12-11T09:52:52.853Z,16.50
2018-12-11T09:55:20.189Z,15.57
2018-12-11T09:57:47.559Z,15.67
2018-12-11T10:00:14.915Z,17.60
2018-12-11T10:02:42.260Z,13.50
2018-12-11T10:05:09.637Z,11.33
2018-12-11T10:07:37.065Z,14.73
2018-12-11T10:10:04.554Z,16.70
2018-12-11T10:12:32.019Z,13.80
2018-12-11T10:14:59.423Z,12.03
2018-12-11T10:17:26.783Z,12.20
2018-12-11T10:19:54.222Z,12.90
2018-12-11T10:22:21.608Z,14.50
2018-12-11T10:24:49.052Z,13.40
2018-12-11T10:27:16.446Z,13.40
2018-12-11T10:29:43.884Z,14.57
2018-12-11T10:32:11.205Z,14.30
2018-12-11T10:34:38.481Z,15.73
2018-12-11T10:37:05.833Z,13.20
2018-12-11T10:39:33.172Z,15.23
2018-12-11T10:42:00.607Z,18.30
2018-12-11T10:44:27.982Z,13.43
2018-12-11T10:46:55.346Z,13.60
2018-12-11T10:49:22.759Z,13.20
2018-12-11T10:51:50.180Z,16.40
2018-12-11T10:54:17.610Z,15.73
2018-12-11T10:56:45.274Z,14.70
2018-12-11T10:59:12.657Z,14.83
2018-12-11T11:01:44.277Z,13.30
2018-12-11T11:04:11.795Z,15.80
2018-12-11T11:06:39.319Z,14.03
2018-12-11T11:09:07.271Z,16.30
2018-12-11T11:11:34.654Z,14.60
2018-12-11T11:14:02.158Z,17.60
2018-12-11T11:16:29.638Z,24.87
2018-12-11T11:18:57.002Z,35.90
2018-12-11T11:21:24.449Z,24.67
2018-12-11T11:23:51.822Z,24.30
2018-12-11T11:26:19.198Z,18.80
2018-12-11T11:28:46.618Z,15.90
2018-12-11T11:31:14.129Z,15.20
2018-12-11T11:33:41.536Z,15.80
2018-12-11T11:36:08.880Z,14.07
2018-12-11T11:38:36.255Z,17.20
2018-12-11T11:41:03.741Z,19.87
2018-12-11T11:43:31.231Z,16.37
2018-12-11T11:46:01.049Z,14.87
2018-12-11T11:48:30.157Z,14.27
2018-12-11T11:50:59.445Z,15.50
2018-12-11T11:53:28.481Z,13.57
2018-12-11T11:55:58.072Z,13.83
2018-12-11T11:58:27.026Z,11.40
2018-12-11T12:00:56.228Z,14.33
2018-12-11T12:03:25.343Z,11.40
2018-12-11T12:05:54.827Z,13.30
2018-12-11T12:08:25.807Z,8.37
2018-12-11T12:10:55.161Z,6.10
2018-12-11T12:13:24.493Z,8.40
2018-12-11T12:15:53.251Z,8.87
2018-12-11T12:18:22.752Z,17.67
2018-12-11T12:20:52.659Z,6.67
2018-12-11T12:23:22.117Z,8.90
2018-12-11T12:25:51.121Z,8.20
2018-12-11T12:28:18.588Z,8.80
2018-12-11T12:30:46.728Z,6.77
2018-12-11T12:33:14.083Z,6.20
2018-12-11T12:35:41.377Z,6.90
2018-12-11T12:38:08.713Z,7.50
2018-12-11T12:40:36.052Z,7.30
2018-12-11T12:43:03.550Z,6.37
2018-12-11T12:45:30.970Z,6.27
2018-12-11T12:47:58.341Z,9.37
2018-12-11T12:50:25.686Z,8.60
2018-12-11T12:52:53.329Z,8.27
2018-12-11T12:55:20.778Z,5.90
2018-12-11T12:57:48.239Z,5.80
2018-12-11T13:00:15.607Z,6.70
2018-12-11T13:02:49.753Z,6.27
2018-12-11T13:05:14.632Z,7.30
2018-12-11T13:07:41.974Z,5.83
2018-12-11T13:10:09.598Z,9.10
2018-12-11T13:12:37.276Z,8.43
2018-12-11T13:15:07.324Z,9.30
2018-12-11T13:17:34.891Z,6.23
2018-12-11T13:20:02.346Z,6.50
2018-12-11T13:22:29.707Z,7.43
2018-12-11T13:24:57.011Z,6.30
2018-12-11T13:27:24.416Z,7.67
2018-12-11T13:29:51.787Z,5.93
2018-12-11T13:32:19.184Z,8.17
2018-12-11T13:34:46.584Z,9.13
2018-12-11T13:37:14.176Z,13.70
2018-12-11T13:39:41.719Z,6.73
2018-12-11T13:42:09.276Z,7.20
2018-12-11T13:44:36.747Z,6.77
2018-12-11T13:47:04.310Z,16.60
2018-12-11T13:49:31.748Z,8.23
2018-12-11T13:51:59.215Z,6.57
2018-12-11T13:54:26.687Z,8.67
2018-12-11T13:56:54.064Z,8.90
2018-12-11T13:59:21.442Z,9.13
2018-12-11T14:01:48.790Z,9.27
2018-12-11T14:04:16.144Z,7.40
2018-12-11T14:06:43.657Z,7.07
2018-12-11T14:09:16.572Z,7.37
2018-12-11T14:11:43.960Z,8.40
2018-12-11T14:14:11.405Z,6.40
2018-12-11T14:16:38.835Z,7.67
2018-12-11T14:19:06.312Z,9.30
2018-12-11T14:21:33.714Z,8.47
2018-12-11T14:24:01.110Z,8.00
2018-12-11T14:26:28.505Z,5.70
2018-12-11T14:28:55.803Z,6.87
2018-12-11T14:31:23.191Z,7.60
2018-12-11T14:33:50.627Z,6.07
2018-12-11T14:36:17.917Z,7.00
2018-12-11T14:38:45.465Z,7.37
2018-12-11T14:41:12.820Z,9.63
2018-12-11T14:43:40.192Z,10.00
2018-12-11T14:46:07.552Z,9.50
2018-12-11T14:48:34.912Z,8.73
2018-12-11T14:51:02.225Z,7.00
2018-12-11T14:53:29.724Z,6.87
2018-12-11T14:55:57.187Z,7.70
2018-12-11T14:58:24.638Z,6.60
2018-12-11T15:00:51.953Z,6.97
2018-12-11T15:03:19.732Z,9.73
2018-12-11T15:05:47.079Z,9.80
2018-12-11T15:08:14.464Z,10.90
2018-12-11T15:10:41.930Z,7.90
2018-12-11T15:13:09.511Z,8.97
2018-12-11T15:15:36.948Z,10.73
2018-12-11T15:18:07.258Z,13.13
2018-12-11T15:20:35.174Z,9.57
2018-12-11T15:23:02.543Z,9.67
2018-12-11T15:25:29.909Z,9.70
2018-12-11T15:27:57.296Z,11.77
2018-12-11T15:30:24.749Z,10.00
2018-12-11T15:32:52.231Z,12.83
2018-12-11T15:35:19.625Z,10.47
2018-12-11T15:37:46.990Z,9.00
2018-12-11T15:40:14.347Z,8.60
2018-12-11T15:42:41.738Z,10.07
2018-12-11T15:45:09.199Z,7.80
2018-12-11T15:47:36.741Z,10.80
2018-12-11T15:50:04.853Z,11.13
2018-12-11T15:52:32.254Z,10.73
2018-12-11T15:54:59.617Z,11.93
2018-12-11T15:57:27.012Z,8.27
2018-12-11T15:59:54.422Z,7.43
2018-12-11T16:02:21.774Z,7.03
2018-12-11T16:04:49.150Z,6.50
2018-12-11T16:07:16.594Z,7.97
2018-12-11T16:09:43.947Z,6.50
2018-12-11T16:12:11.575Z,9.70
2018-12-11T16:14:38.974Z,10.10
2018-12-11T16:17:06.400Z,10.63
2018-12-11T16:19:33.765Z,8.07
2018-12-11T16:22:01.119Z,6.33
2018-12-11T16:24:28.495Z,8.70
2018-12-11T16:26:55.935Z,6.43
2018-12-11T16:29:23.342Z,6.63
2018-12-11T16:31:50.747Z,9.47
2018-12-11T16:34:18.436Z,12.63
2018-12-11T16:36:45.775Z,10.70
2018-12-11T16:39:13.138Z,12.60
2018-12-11T16:41:40.835Z,8.13
2018-12-11T16:44:08.489Z,7.47
2018-12-11T16:46:35.930Z,7.60
2018-12-11T16:49:03.488Z,8.30
2018-12-11T16:51:30.927Z,10.10
2018-12-11T16:53:58.264Z,9.27
2018-12-11T16:56:27.020Z,10.57
2018-12-11T16:58:54.528Z,8.90
2018-12-11T17:01:21.858Z,10.80
2018-12-11T17:03:49.379Z,6.20
2018-12-11T17:06:16.782Z,6.40
2018-12-11T17:08:45.498Z,11.90
2018-12-11T17:11:12.934Z,6.67
2018-12-11T17:13:40.287Z,6.57
2018-12-11T17:16:07.629Z,7.20
2018-12-11T17:18:35.116Z,10.27
2018-12-11T17:21:02.803Z,10.33
2018-12-11T17:23:30.224Z,10.37
2018-12-11T17:25:57.561Z,6.83
2018-12-11T17:28:24.923Z,7.07
2018-12-11T17:30:52.396Z,7.53
2018-12-11T17:33:19.785Z,12.50
2018-12-11T17:35:47.193Z,11.20
2018-12-11T17:38:14.562Z,12.20
2018-12-11T17:40:41.903Z,9.70
2018-12-11T17:43:09.256Z,11.27
2018-12-11T17:45:36.629Z,10.27
2018-12-11T17:48:04.642Z,8.90
2018-12-11T17:50:32.019Z,7.23
2018-12-11T17:52:59.531Z,9.00
2018-12-11T17:55:27.359Z,9.97
2018-12-11T17:57:54.714Z,6.10
2018-12-11T18:00:22.060Z,8.33
2018-12-11T18:02:49.643Z,9.33
2018-12-11T18:05:16.995Z,13.57
2018-12-11T18:07:44.355Z,15.67
2018-12-11T18:10:11.776Z,12.20
2018-12-11T18:12:39.164Z,10.60
2018-12-11T18:15:06.656Z,10.67
2018-12-11T18:17:34.097Z,9.20
2018-12-11T18:20:01.604Z,9.47
2018-12-11T18:22:29.213Z,9.07
2018-12-11T18:24:56.712Z,8.30
2018-12-11T18:27:24.182Z,12.40
2018-12-11T18:29:51.597Z,12.63
2018-12-11T18:32:24.912Z,12.10
2018-12-11T18:34:49.681Z,9.97
2018-12-11T18:37:17.064Z,9.30
2018-12-11T18:39:44.440Z,9.17
2018-12-11T18:42:12.171Z,13.67
2018-12-11T18:44:39.758Z,9.70
2018-12-11T18:47:07.154Z,7.60
2018-12-11T18:49:34.588Z,9.43
2018-12-11T18:53:26.511Z,10.80
2018-12-11T18:55:54.895Z,15.73
2018-12-11T18:58:22.397Z,12.50
2018-12-11T19:00:49.944Z,10.87
2018-12-11T19:03:18.732Z,11.10
2018-12-11T19:05:46.595Z,9.40
2018-12-11T19:08:14.725Z,10.03
2018-12-11T19:10:47.651Z,8.53
2018-12-11T19:13:16.609Z,11.03
2018-12-11T19:15:45.843Z,10.70
2018-12-11T19:18:14.207Z,11.07
2018-12-11T19:20:41.650Z,8.07
2018-12-11T19:23:17.124Z,9.07
2018-12-11T19:25:44.638Z,9.53
2018-12-11T19:28:12.113Z,8.10
2018-12-11T19:30:39.610Z,9.27
2018-12-11T19:33:07.918Z,9.33
2018-12-11T19:35:35.450Z,10.50
2018-12-11T19:38:02.890Z,10.40
2018-12-11T19:40:30.434Z,11.30
2018-12-11T19:42:57.883Z,7.77
2018-12-11T19:45:26.611Z,8.40
2018-12-11T19:47:54.401Z,8.60
2018-12-11T19:50:21.874Z,9.13
2018-12-11T19:52:49.659Z,12.13
2018-12-11T19:55:17.090Z,14.73
2018-12-11T19:57:44.578Z,15.33
2018-12-11T20:00:12.643Z,14.70
2018-12-11T20:02:40.106Z,12.13
2018-12-11T20:05:09.413Z,12.40
2018-12-11T20:07:36.938Z,15.87
2018-12-11T20:10:10.694Z,16.00
2018-12-11T20:12:38.488Z,12.27
2018-12-11T20:15:13.724Z,11.00
2018-12-11T20:17:41.672Z,11.77
2018-12-11T20:20:14.595Z,13.60
2018-12-11T20:22:42.550Z,12.03
2018-12-11T20:25:10.150Z,11.80
2018-12-11T20:27:37.655Z,12.37
2018-12-11T20:30:05.264Z,11.07
2018-12-11T20:32:33.326Z,11.97
2018-12-11T20:35:02.634Z,8.87
2018-12-11T20:37:31.320Z,8.37
2018-12-11T20:39:58.966Z,7.80
2018-12-11T20:42:26.853Z,13.90
2018-12-11T20:44:54.314Z,10.67
2018-12-11T20:47:21.878Z,11.17
2018-12-11T20:49:51.515Z,8.30
2018-12-11T20:52:20.263Z,8.63
2018-12-11T20:54:47.748Z,8.53
2018-12-11T20:57:15.274Z,8.30
2018-12-11T20:59:43.218Z,8.37
2018-12-11T21:02:10.867Z,9.17
2018-12-11T21:04:38.802Z,7.17
2018-12-11T21:07:06.271Z,10.37
2018-12-11T21:09:33.735Z,9.90
2018-12-11T21:12:01.275Z,9.87
2018-12-11T21:14:28.744Z,8.70
2018-12-11T21:16:56.477Z,7.33
2018-12-11T21:19:24.286Z,6.90
2018-12-11T21:21:51.763Z,7.77
2018-12-11T21:24:20.011Z,7.53
2018-12-11T21:26:47.554Z,7.03
2018-12-11T21:29:15.329Z,9.73
2018-12-11T21:31:42.753Z,9.80
2018-12-11T21:34:10.248Z,9.30
2018-12-11T21:36:37.987Z,7.70
2018-12-11T21:39:06.533Z,7.93
2018-12-11T21:41:34.316Z,7.07
2018-12-11T21:44:01.780Z,7.30
2018-12-11T21:46:29.266Z,7.80
2018-12-11T21:48:56.682Z,8.23
2018-12-11T21:51:24.160Z,9.83
2018-12-11T21:53:51.618Z,10.13
2018-12-11T21:56:19.063Z,10.30
2018-12-11T21:58:46.424Z,6.97
2018-12-11T22:01:13.816Z,6.73
2018-12-11T22:03:41.238Z,7.47
2018-12-11T22:06:08.822Z,7.10
2018-12-11T22:08:36.151Z,7.87
2018-12-11T22:11:03.537Z,8.00
2018-12-11T22:13:31.020Z,11.03
2018-12-11T22:15:58.419Z,11.20
2018-12-11T22:18:25.796Z,10.27
2018-12-11T22:20:53.143Z,7.50
2018-12-11T22:23:20.482Z,8.07
2018-12-11T22:25:47.855Z,8.10
2018-12-11T22:28:15.194Z,7.77
2018-12-11T22:30:42.722Z,7.60
2018-12-11T22:33:10.099Z,7.23
2018-12-11T22:35:37.455Z,9.67
2018-12-11T22:38:04.774Z,10.97
2018-12-11T22:40:32.165Z,9.83
2018-12-11T22:42:59.496Z,9.47
2018-12-11T22:45:26.896Z,7.23
2018-12-11T22:47:54.233Z,7.10
2018-12-11T22:50:21.578Z,7.07
2018-12-11T22:52:48.938Z,9.57
2018-12-11T22:55:16.298Z,7.07
2018-12-11T22:57:43.973Z,7.63
2018-12-11T23:00:11.927Z,9.73
2018-12-11T23:02:39.451Z,10.20
2018-12-11T23:05:06.987Z,10.37
2018-12-11T23:07:34.382Z,8.60
2018-12-11T23:10:02.284Z,8.47
2018-12-11T23:12:29.663Z,8.50
2018-12-11T23:14:57.082Z,6.80
2018-12-11T23:17:24.448Z,7.60
2018-12-11T23:19:51.866Z,7.57
2018-12-11T23:22:19.279Z,9.83
2018-12-11T23:24:47.042Z,10.10
2018-12-11T23:27:14.646Z,10.30
2018-12-11T23:29:42.171Z,7.50
2018-12-11T23:32:09.597Z,8.90
2018-12-11T23:34:37.040Z,7.20
2018-12-11T23:37:04.465Z,7.00
2018-12-11T23:39:31.885Z,7.10
2018-12-11T23:43:23.702Z,8.53
2018-12-11T23:45:51.159Z,9.70
2018-12-11T23:48:18.517Z,9.50
2018-12-11T23:50:45.863Z,9.40
2018-12-11T23:53:13.203Z,8.40
2018-12-11T23:55:40.579Z,7.23
2018-12-11T23:58:08.113Z,6.80
